createdAt,value
2022-09-28T00:01:25.702Z,44.94
2022-09-28T00:03:52.285Z,44.57
2022-09-28T00:06:19.099Z,44.79
2022-09-28T00:08:45.863Z,44.88
2022-09-28T00:11:12.292Z,44.77
2022-09-28T00:13:39.053Z,44.97
2022-09-28T00:16:05.675Z,44.63
2022-09-28T00:18:32.193Z,44.87
2022-09-28T00:20:59.505Z,45.16
2022-09-28T00:23:26.060Z,44.98
2022-09-28T00:25:52.511Z,45.07
2022-09-28T00:28:19.690Z,44.97
2022-09-28T00:30:46.344Z,44.82
2022-09-28T00:33:12.891Z,44.84
2022-09-28T00:35:39.791Z,45.52
2022-09-28T00:38:06.236Z,46.40
2022-09-28T00:40:32.693Z,46.13
2022-09-28T00:43:00.693Z,46.01
2022-09-28T00:45:27.397Z,46.04
2022-09-28T00:47:54.067Z,46.16
2022-09-28T00:50:20.676Z,46.16
2022-09-28T00:52:47.146Z,45.08
2022-09-28T00:55:13.626Z,45.77
2022-09-28T00:57:40.149Z,45.84
2022-09-28T01:00:06.646Z,45.96
2022-09-28T01:02:33.121Z,46.04
2022-09-28T01:04:59.897Z,45.83
2022-09-28T01:07:26.734Z,46.24
2022-09-28T01:09:53.394Z,45.71
2022-09-28T01:12:20.841Z,45.79
2022-09-28T01:14:47.426Z,45.61
2022-09-28T01:17:13.947Z,45.39
2022-09-28T01:19:40.994Z,45.32
2022-09-28T01:22:07.717Z,45.46
2022-09-28T01:24:34.224Z,45.32
2022-09-28T01:27:00.832Z,45.72
2022-09-28T01:29:27.496Z,45.51
2022-09-28T01:31:54.295Z,45.46
2022-09-28T01:34:21.255Z,45.23
2022-09-28T01:36:47.754Z,45.17
2022-09-28T01:39:14.458Z,45.22
2022-09-28T01:41:42.342Z,45.35
2022-09-28T01:44:09.164Z,45.52
2022-09-28T01:46:35.703Z,45.62
2022-09-28T01:49:02.552Z,45.67
2022-09-28T01:51:29.058Z,45.51
2022-09-28T01:53:55.527Z,45.49
2022-09-28T01:56:22.312Z,46.00
2022-09-28T01:58:48.864Z,46.18
2022-09-28T02:01:15.531Z,46.46
2022-09-28T02:03:42.393Z,46.48
2022-09-28T02:06:08.911Z,46.28
2022-09-28T02:08:35.379Z,47.08
2022-09-28T02:11:02.343Z,46.81
2022-09-28T02:13:28.794Z,46.72
2022-09-28T02:15:55.377Z,45.90
2022-09-28T02:18:22.144Z,46.09
2022-09-28T02:20:48.758Z,46.02
2022-09-28T02:23:15.187Z,45.96
2022-09-28T02:25:41.985Z,46.01
2022-09-28T02:28:08.464Z,45.99
2022-09-28T02:30:34.907Z,45.86
2022-09-28T02:33:01.657Z,45.78
2022-09-28T02:35:28.100Z,45.76
2022-09-28T02:37:54.492Z,45.52
2022-09-28T02:40:21.984Z,46.21
2022-09-28T02:42:48.477Z,46.62
2022-09-28T02:45:14.936Z,46.91
2022-09-28T02:47:41.637Z,46.53
2022-09-28T02:50:08.042Z,46.59
2022-09-28T02:52:34.485Z,46.47
2022-09-28T02:55:01.069Z,46.87
2022-09-28T02:57:27.684Z,46.95
2022-09-28T02:59:54.159Z,47.01
2022-09-28T03:02:20.931Z,47.13
2022-09-28T03:04:47.417Z,47.31
2022-09-28T03:07:14.062Z,47.16
2022-09-28T03:09:41.710Z,47.34
2022-09-28T03:12:08.161Z,47.16
2022-09-28T03:14:34.606Z,47.62
2022-09-28T03:17:01.135Z,46.99
2022-09-28T03:19:27.579Z,46.84
2022-09-28T03:21:54.026Z,46.83
2022-09-28T03:24:20.591Z,46.67
2022-09-28T03:26:47.176Z,46.90
2022-09-28T03:29:13.822Z,46.56
2022-09-28T03:31:40.527Z,46.43
2022-09-28T03:34:07.039Z,46.22
2022-09-28T03:36:33.616Z,46.29
2022-09-28T03:39:00.515Z,47.04
2022-09-28T03:41:26.969Z,47.58
2022-09-28T03:43:53.423Z,47.94
2022-09-28T03:46:20.303Z,47.71
2022-09-28T03:48:46.808Z,47.57
2022-09-28T03:51:13.343Z,48.71
2022-09-28T03:53:39.890Z,48.54
2022-09-28T03:56:06.415Z,49.12
2022-09-28T03:58:32.965Z,48.44
2022-09-28T04:00:59.770Z,48.48
2022-09-28T04:03:26.301Z,49.32
2022-09-28T04:05:52.779Z,48.41
2022-09-28T04:08:19.292Z,47.90
2022-09-28T04:10:45.870Z,47.80
2022-09-28T04:13:12.340Z,47.67
2022-09-28T04:15:39.026Z,48.13
2022-09-28T04:18:05.482Z,48.26
2022-09-28T04:20:31.973Z,47.87
2022-09-28T04:22:58.590Z,47.60
2022-09-28T04:25:25.040Z,47.29
2022-09-28T04:27:51.581Z,47.57
2022-09-28T04:30:18.190Z,47.61
2022-09-28T04:32:44.933Z,47.49
2022-09-28T04:35:11.381Z,47.50
2022-09-28T04:37:38.237Z,47.44
2022-09-28T04:40:05.014Z,47.40
2022-09-28T04:42:31.539Z,48.16
2022-09-28T04:44:58.986Z,47.57
2022-09-28T04:47:25.460Z,47.20
2022-09-28T04:49:52.211Z,46.68
2022-09-28T04:52:18.885Z,47.28
2022-09-28T04:54:45.568Z,46.78
2022-09-28T04:57:12.190Z,46.00
2022-09-28T04:59:38.787Z,46.80
2022-09-28T05:02:05.289Z,46.49
2022-09-28T05:04:31.826Z,46.58
2022-09-28T05:06:58.611Z,46.71
2022-09-28T05:09:25.043Z,46.86
2022-09-28T05:11:51.575Z,47.30
2022-09-28T05:14:18.279Z,46.85
2022-09-28T05:16:44.902Z,47.05
2022-09-28T05:19:11.800Z,46.58
2022-09-28T05:21:38.365Z,46.64
2022-09-28T05:24:05.031Z,46.92
2022-09-28T05:26:31.595Z,46.78
2022-09-28T05:28:58.295Z,46.18
2022-09-28T05:31:24.878Z,46.35
2022-09-28T05:33:51.397Z,46.52
2022-09-28T05:36:19.458Z,46.71
2022-09-28T05:38:45.948Z,46.73
2022-09-28T05:41:12.418Z,46.52
2022-09-28T05:43:39.810Z,47.19
2022-09-28T05:46:08.759Z,47.10
2022-09-28T05:48:35.286Z,46.70
2022-09-28T05:51:02.031Z,46.38
2022-09-28T05:53:28.585Z,46.28
2022-09-28T05:55:55.074Z,46.54
2022-09-28T05:58:22.076Z,46.36
2022-09-28T06:00:48.629Z,46.33
2022-09-28T06:03:15.153Z,46.74
2022-09-28T06:05:41.890Z,47.66
2022-09-28T06:08:08.427Z,47.28
2022-09-28T06:10:35.150Z,46.42
2022-09-28T06:13:02.438Z,46.20
2022-09-28T06:15:28.954Z,46.29
2022-09-28T06:17:55.737Z,46.86
2022-09-28T06:20:22.530Z,46.37
2022-09-28T06:22:48.971Z,46.27
2022-09-28T06:25:15.467Z,46.52
2022-09-28T06:27:42.097Z,45.73
2022-09-28T06:30:10.369Z,45.63
2022-09-28T06:32:36.938Z,44.09
2022-09-28T06:35:03.672Z,45.07
2022-09-28T06:37:31.394Z,44.95
2022-09-28T06:39:59.939Z,44.16
2022-09-28T06:42:26.625Z,45.05
2022-09-28T06:44:53.146Z,44.61
2022-09-28T06:47:19.625Z,43.19
2022-09-28T06:49:46.533Z,43.61
2022-09-28T06:52:13.268Z,43.42
2022-09-28T06:54:40.097Z,43.72
2022-09-28T06:57:06.584Z,42.13
2022-09-28T06:59:33.036Z,42.70
2022-09-28T07:01:59.619Z,41.01
2022-09-28T07:04:26.139Z,42.12
2022-09-28T07:06:52.625Z,40.35
2022-09-28T07:09:31.442Z,41.43
2022-09-28T07:11:59.755Z,42.25
2022-09-28T07:14:45.888Z,41.95
2022-09-28T07:17:14.439Z,42.93
2022-09-28T07:19:41.253Z,42.56
2022-09-28T07:22:07.860Z,42.00
2022-09-28T07:24:34.942Z,42.25
2022-09-28T07:27:01.383Z,42.48
2022-09-28T07:29:27.866Z,42.24
2022-09-28T07:31:54.652Z,41.95
2022-09-28T07:34:21.122Z,42.59
2022-09-28T07:36:47.827Z,42.85
2022-09-28T07:39:14.862Z,42.83
2022-09-28T07:41:41.331Z,43.04
2022-09-28T07:44:08.017Z,43.34
2022-09-28T07:46:34.830Z,42.92
2022-09-28T07:49:01.298Z,44.08
2022-09-28T07:51:27.953Z,43.60
2022-09-28T07:53:55.177Z,43.35
2022-09-28T07:56:21.711Z,44.02
2022-09-28T07:58:48.184Z,43.86
2022-09-28T08:01:14.757Z,43.63
2022-09-28T08:03:41.646Z,43.86
2022-09-28T08:06:08.191Z,43.37
2022-09-28T08:08:34.802Z,43.89
2022-09-28T08:11:01.278Z,44.48
2022-09-28T08:13:27.708Z,44.19
2022-09-28T08:15:54.341Z,44.11
2022-09-28T08:18:20.870Z,44.24
2022-09-28T08:20:51.322Z,44.07
2022-09-28T08:23:18.443Z,44.58
2022-09-28T08:25:44.874Z,44.54
2022-09-28T08:28:11.339Z,44.69
2022-09-28T08:30:38.109Z,44.53
2022-09-28T08:33:04.866Z,44.32
2022-09-28T08:35:31.389Z,44.28
2022-09-28T08:37:58.462Z,44.44
2022-09-28T08:40:26.111Z,44.97
2022-09-28T08:42:52.730Z,44.87
2022-09-28T08:45:20.108Z,45.90
2022-09-28T08:47:48.537Z,45.64
2022-09-28T08:50:15.065Z,45.58
2022-09-28T08:52:42.390Z,45.85
2022-09-28T08:55:09.972Z,46.09
2022-09-28T08:57:36.505Z,45.56
2022-09-28T09:00:03.256Z,46.53
2022-09-28T09:02:29.795Z,46.07
2022-09-28T09:04:56.306Z,45.71
2022-09-28T09:07:22.898Z,45.35
2022-09-28T09:09:49.421Z,45.53
2022-09-28T09:12:15.948Z,44.85
2022-09-28T09:14:42.456Z,45.25
2022-09-28T09:17:08.933Z,45.45
2022-09-28T09:19:35.841Z,45.43
2022-09-28T09:22:02.509Z,45.89
2022-09-28T09:24:29.045Z,45.58
2022-09-28T09:26:55.623Z,45.59
2022-09-28T09:29:22.484Z,46.15
2022-09-28T09:31:48.965Z,45.67
2022-09-28T09:34:15.638Z,45.48
2022-09-28T09:36:42.148Z,45.19
2022-09-28T09:39:08.603Z,45.42
2022-09-28T09:41:35.312Z,45.98
2022-09-28T09:44:02.103Z,45.59
2022-09-28T09:46:28.563Z,44.82
2022-09-28T09:48:55.031Z,45.09
2022-09-28T09:51:22.216Z,45.22
2022-09-28T09:53:48.736Z,44.34
2022-09-28T09:56:15.171Z,44.12
2022-09-28T09:58:41.911Z,44.46
2022-09-28T10:01:08.465Z,44.58
2022-09-28T10:03:34.974Z,44.70
2022-09-28T10:06:01.788Z,44.35
2022-09-28T10:08:28.542Z,44.43
2022-09-28T10:10:55.247Z,44.67
2022-09-28T10:13:22.520Z,46.73
2022-09-28T10:15:49.059Z,46.49
2022-09-28T10:18:16.059Z,46.12
2022-09-28T10:20:42.889Z,45.07
2022-09-28T10:23:11.831Z,43.58
2022-09-28T10:25:39.446Z,45.09
2022-09-28T10:28:06.349Z,44.37
2022-09-28T10:30:32.986Z,45.07
2022-09-28T10:32:59.596Z,44.17
2022-09-28T10:35:26.548Z,44.71
2022-09-28T10:37:53.132Z,43.74
2022-09-28T10:40:19.683Z,44.54
2022-09-28T10:42:46.749Z,44.79
2022-09-28T10:45:13.253Z,44.26
2022-09-28T10:47:39.773Z,44.43
2022-09-28T10:50:06.655Z,43.91
2022-09-28T10:52:33.165Z,43.64
2022-09-28T10:54:59.814Z,41.06
2022-09-28T10:57:27.004Z,43.00
2022-09-28T10:59:53.543Z,41.73
2022-09-28T11:02:20.184Z,41.51
2022-09-28T11:04:46.772Z,40.60
2022-09-28T11:07:15.368Z,41.11
2022-09-28T11:09:46.603Z,39.22
2022-09-28T11:12:14.951Z,39.49
2022-09-28T11:14:42.847Z,39.31
2022-09-28T11:17:09.837Z,38.68
2022-09-28T11:19:36.584Z,38.96
2022-09-28T11:22:03.140Z,38.83
2022-09-28T11:24:29.561Z,39.10
2022-09-28T11:26:56.269Z,39.09
2022-09-28T11:29:22.712Z,39.18
2022-09-28T11:31:49.235Z,39.82
2022-09-28T11:34:16.911Z,39.57
2022-09-28T11:36:43.712Z,38.73
2022-09-28T11:39:10.475Z,39.43
2022-09-28T11:41:39.599Z,38.96
2022-09-28T11:44:06.128Z,38.43
2022-09-28T11:46:32.842Z,38.97
2022-09-28T11:49:00.600Z,38.64
2022-09-28T11:51:27.482Z,39.00
2022-09-28T11:53:54.311Z,39.02
2022-09-28T11:56:22.702Z,39.10
2022-09-28T11:58:49.199Z,39.46
2022-09-28T12:01:18.875Z,39.27
2022-09-28T12:03:51.960Z,39.57
2022-09-28T12:06:19.452Z,39.96
2022-09-28T12:08:45.919Z,39.37
2022-09-28T12:11:12.934Z,39.65
2022-09-28T12:13:44.625Z,40.02
2022-09-28T12:16:38.415Z,40.05
2022-09-28T12:19:03.357Z,39.98
2022-09-28T12:21:30.148Z,40.16
2022-09-28T12:23:57.544Z,40.16
2022-09-28T12:26:24.639Z,39.75
2022-09-28T12:28:51.032Z,39.40
2022-09-28T12:31:17.677Z,39.24
2022-09-28T12:33:44.589Z,39.28
2022-09-28T12:36:11.147Z,39.19
2022-09-28T12:38:37.625Z,38.56
2022-09-28T12:41:04.820Z,38.92
2022-09-28T12:43:31.263Z,38.14
2022-09-28T12:46:11.448Z,38.63
2022-09-28T12:48:39.008Z,38.60
2022-09-28T12:51:05.471Z,38.42
2022-09-28T12:53:32.933Z,38.63
2022-09-28T12:55:59.928Z,38.56
2022-09-28T12:58:26.776Z,38.19
2022-09-28T13:00:53.202Z,38.36
2022-09-28T13:03:20.591Z,37.54
2022-09-28T13:05:47.071Z,38.49
2022-09-28T13:08:13.480Z,38.62
2022-09-28T13:10:40.268Z,38.87
2022-09-28T13:13:06.821Z,38.64
2022-09-28T13:15:33.285Z,38.75
2022-09-28T13:18:00.389Z,38.54
2022-09-28T13:20:28.007Z,37.90
2022-09-28T13:22:54.424Z,38.01
2022-09-28T13:25:21.181Z,38.42
2022-09-28T13:27:47.906Z,38.04
2022-09-28T13:30:14.473Z,37.63
2022-09-28T13:32:41.226Z,36.96
2022-09-28T13:35:07.611Z,37.59
2022-09-28T13:37:34.097Z,37.69
2022-09-28T13:40:03.755Z,37.54
2022-09-28T13:42:30.451Z,37.79
2022-09-28T13:44:56.937Z,36.42
2022-09-28T13:47:23.975Z,37.76
2022-09-28T13:49:50.635Z,37.67
2022-09-28T13:52:17.257Z,37.83
2022-09-28T13:54:43.729Z,37.07
2022-09-28T13:57:15.961Z,36.66
2022-09-28T13:59:42.463Z,37.64
2022-09-28T14:02:09.095Z,38.07
2022-09-28T14:04:35.569Z,37.22
2022-09-28T14:07:02.017Z,37.02
2022-09-28T14:09:28.497Z,36.25
2022-09-28T14:11:54.972Z,36.04
2022-09-28T14:14:21.642Z,35.72
2022-09-28T14:16:48.507Z,35.74
2022-09-28T14:19:15.054Z,35.84
2022-09-28T14:21:41.557Z,36.39
2022-09-28T14:24:08.812Z,35.96
2022-09-28T14:26:35.280Z,36.16
2022-09-28T14:29:01.764Z,36.36
2022-09-28T14:31:28.463Z,36.16
2022-09-28T14:33:55.080Z,35.97
2022-09-28T14:36:23.787Z,36.08
2022-09-28T14:38:50.337Z,34.39
2022-09-28T14:41:16.776Z,35.20
2022-09-28T14:43:43.346Z,34.69
2022-09-28T14:46:12.621Z,35.24
2022-09-28T14:48:39.232Z,34.26
2022-09-28T14:51:05.694Z,33.88
2022-09-28T14:53:32.364Z,34.95
2022-09-28T14:55:59.194Z,35.99
2022-09-28T14:58:26.757Z,35.28
2022-09-28T15:00:54.450Z,35.11
2022-09-28T15:03:23.289Z,35.71
2022-09-28T15:05:49.867Z,36.28
2022-09-28T15:08:16.388Z,36.28
2022-09-28T15:10:43.006Z,38.19
2022-09-28T15:13:09.455Z,37.05
2022-09-28T15:15:36.172Z,36.88
2022-09-28T15:18:02.703Z,37.79
2022-09-28T15:20:29.168Z,37.41
2022-09-28T15:22:55.892Z,37.64
2022-09-28T15:25:22.476Z,37.79
2022-09-28T15:27:49.009Z,37.36
2022-09-28T15:30:16.043Z,36.64
2022-09-28T15:32:42.532Z,37.92
2022-09-28T15:35:09.052Z,37.36
2022-09-28T15:37:40.292Z,37.72
2022-09-28T15:40:07.258Z,37.97
2022-09-28T15:42:33.762Z,38.04
2022-09-28T15:45:00.325Z,39.64
2022-09-28T15:47:27.001Z,41.23
2022-09-28T15:49:53.504Z,39.63
2022-09-28T15:52:20.050Z,38.81
2022-09-28T15:54:46.648Z,37.47
2022-09-28T15:57:13.195Z,37.41
2022-09-28T15:59:40.781Z,37.24
2022-09-28T16:02:08.411Z,37.76
2022-09-28T16:04:34.969Z,38.19
2022-09-28T16:07:01.650Z,37.75
2022-09-28T16:09:28.181Z,38.54
2022-09-28T16:11:54.631Z,38.01
2022-09-28T16:14:21.812Z,37.92
2022-09-28T16:16:48.364Z,38.69
2022-09-28T16:19:14.825Z,37.35
2022-09-28T16:21:41.670Z,37.77
2022-09-28T16:24:08.359Z,37.33
2022-09-28T16:26:34.938Z,37.48
2022-09-28T16:29:02.522Z,37.59
2022-09-28T16:31:29.117Z,37.10
2022-09-28T16:33:55.863Z,37.83
2022-09-28T16:36:22.566Z,38.19
2022-09-28T16:38:49.301Z,37.62
2022-09-28T16:41:15.834Z,37.70
2022-09-28T16:43:42.600Z,37.70
2022-09-28T16:46:09.305Z,37.12
2022-09-28T16:48:35.855Z,36.88
2022-09-28T16:51:02.850Z,36.97
2022-09-28T16:53:29.283Z,37.21
2022-09-28T16:55:55.901Z,37.43
2022-09-28T16:58:22.643Z,36.61
2022-09-28T17:00:49.178Z,36.42
2022-09-28T17:03:15.804Z,36.54
2022-09-28T17:05:42.607Z,37.07
2022-09-28T17:08:09.109Z,37.30
2022-09-28T17:10:50.144Z,36.70
2022-09-28T17:13:22.462Z,36.65
2022-09-28T17:15:49.123Z,36.94
2022-09-28T17:18:15.650Z,37.21
2022-09-28T17:20:42.423Z,36.68
2022-09-28T17:23:09.031Z,36.97
2022-09-28T17:25:35.463Z,36.76
2022-09-28T17:28:03.701Z,37.45
2022-09-28T17:30:30.197Z,37.26
2022-09-28T17:32:56.899Z,37.21
2022-09-28T17:35:25.270Z,38.58
2022-09-28T17:37:52.070Z,37.80
2022-09-28T17:40:18.582Z,37.75
2022-09-28T17:42:45.675Z,37.94
2022-09-28T17:45:12.113Z,38.78
2022-09-28T17:47:38.972Z,38.75
2022-09-28T17:50:06.272Z,38.31
2022-09-28T17:52:32.939Z,38.64
2022-09-28T17:54:59.785Z,39.08
2022-09-28T17:57:27.271Z,39.94
2022-09-28T17:59:53.804Z,40.46
2022-09-28T18:02:20.864Z,39.28
2022-09-28T18:04:52.065Z,39.19
2022-09-28T18:07:19.309Z,39.82
2022-09-28T18:09:45.948Z,39.61
2022-09-28T18:12:12.685Z,39.57
2022-09-28T18:14:39.190Z,39.95
2022-09-28T18:17:05.894Z,40.63
2022-09-28T18:19:32.711Z,41.02
2022-09-28T18:21:59.260Z,40.90
2022-09-28T18:24:25.765Z,40.65
2022-09-28T18:26:52.394Z,40.83
2022-09-28T18:29:18.872Z,40.95
2022-09-28T18:31:45.359Z,41.15
2022-09-28T18:34:12.602Z,41.42
2022-09-28T18:36:39.258Z,40.63
2022-09-28T18:39:05.731Z,41.17
2022-09-28T18:41:32.818Z,41.23
2022-09-28T18:43:59.658Z,41.11
2022-09-28T18:46:26.162Z,40.88
2022-09-28T18:48:53.002Z,41.86
2022-09-28T18:51:19.476Z,41.55
2022-09-28T18:53:46.335Z,41.53
2022-09-28T18:56:13.386Z,40.88
2022-09-28T18:58:39.939Z,41.19
2022-09-28T19:01:28.302Z,41.56
2022-09-28T19:03:54.061Z,41.79
2022-09-28T19:06:20.905Z,41.76
2022-09-28T19:08:47.486Z,42.42
2022-09-28T19:11:14.029Z,42.18
2022-09-28T19:13:40.522Z,43.13
2022-09-28T19:16:07.440Z,42.20
2022-09-28T19:18:34.149Z,42.11
2022-09-28T19:21:00.785Z,42.11
2022-09-28T19:23:27.418Z,42.39
2022-09-28T19:25:54.465Z,41.86
2022-09-28T19:28:21.541Z,42.16
2022-09-28T19:30:48.263Z,41.73
2022-09-28T19:33:14.855Z,41.72
2022-09-28T19:35:41.269Z,42.87
2022-09-28T19:38:07.799Z,43.78
2022-09-28T19:40:35.104Z,42.76
2022-09-28T19:43:01.601Z,41.96
2022-09-28T19:45:28.031Z,41.18
2022-09-28T19:47:59.243Z,41.70
2022-09-28T19:50:26.129Z,41.54
2022-09-28T19:52:52.960Z,42.12
2022-09-28T19:55:19.460Z,42.01
2022-09-28T19:57:46.074Z,41.77
2022-09-28T20:00:12.709Z,41.90
2022-09-28T20:02:39.279Z,41.19
2022-09-28T20:05:05.706Z,40.79
2022-09-28T20:07:32.175Z,41.56
2022-09-28T20:09:58.715Z,42.11
2022-09-28T20:12:25.159Z,41.78
2022-09-28T20:14:51.653Z,41.59
2022-09-28T20:17:18.134Z,41.75
2022-09-28T20:19:44.745Z,43.07
2022-09-28T20:22:11.220Z,42.20
2022-09-28T20:24:38.287Z,42.66
2022-09-28T20:27:04.795Z,42.65
2022-09-28T20:29:31.200Z,42.53
2022-09-28T20:31:58.163Z,42.41
2022-09-28T20:34:24.584Z,41.84
2022-09-28T20:36:51.127Z,42.23
2022-09-28T20:39:18.145Z,42.08
2022-09-28T20:41:44.674Z,41.75
2022-09-28T20:44:11.147Z,41.45
2022-09-28T20:46:37.881Z,41.02
2022-09-28T20:49:04.304Z,41.20
2022-09-28T20:51:31.042Z,41.64
2022-09-28T20:53:57.746Z,42.77
2022-09-28T20:56:24.504Z,42.32
2022-09-28T20:58:51.174Z,42.23
2022-09-28T21:01:17.786Z,42.31
2022-09-28T21:03:44.327Z,42.12
2022-09-28T21:06:12.403Z,42.12
2022-09-28T21:08:39.279Z,42.10
2022-09-28T21:11:06.307Z,42.24
2022-09-28T21:13:32.761Z,42.73
2022-09-28T21:15:59.602Z,42.33
2022-09-28T21:18:26.063Z,42.69
2022-09-28T21:20:52.557Z,42.61
2022-09-28T21:23:23.997Z,42.88
2022-09-28T21:25:52.303Z,43.62
2022-09-28T21:28:18.914Z,43.26
2022-09-28T21:30:45.586Z,43.62
2022-09-28T21:33:12.117Z,43.66
2022-09-28T21:35:38.622Z,44.53
2022-09-28T21:38:07.180Z,44.76
2022-09-28T21:40:33.749Z,44.94
2022-09-28T21:43:00.226Z,46.13
2022-09-28T21:45:26.894Z,46.08
2022-09-28T21:47:53.398Z,46.78
2022-09-28T21:50:19.859Z,46.73
2022-09-28T21:52:46.526Z,47.44
2022-09-28T21:55:12.979Z,47.25
2022-09-28T21:57:39.410Z,50.28
2022-09-28T22:00:06.589Z,47.72
2022-09-28T22:02:33.108Z,45.52
2022-09-28T22:04:59.583Z,45.34
2022-09-28T22:07:26.622Z,46.22
2022-09-28T22:09:53.681Z,45.17
2022-09-28T22:12:20.273Z,45.20
2022-09-28T22:14:47.207Z,46.12
2022-09-28T22:17:16.303Z,46.11
2022-09-28T22:19:42.875Z,44.77
2022-09-28T22:22:09.913Z,44.50
2022-09-28T22:24:39.002Z,47.34
2022-09-28T22:27:05.866Z,46.08
2022-09-28T22:29:33.439Z,44.71
2022-09-28T22:31:59.953Z,43.97
2022-09-28T22:34:26.454Z,43.93
2022-09-28T22:36:53.354Z,43.48
2022-09-28T22:39:20.003Z,43.97
2022-09-28T22:41:46.489Z,43.14
2022-09-28T22:44:13.406Z,43.37
2022-09-28T22:46:39.997Z,43.12
2022-09-28T22:49:06.744Z,42.87
2022-09-28T22:51:34.556Z,43.39
2022-09-28T22:54:01.364Z,44.12
2022-09-28T22:56:27.807Z,43.70
2022-09-28T22:58:54.457Z,45.55
2022-09-28T23:01:21.022Z,45.61
2022-09-28T23:03:48.033Z,45.00
2022-09-28T23:06:14.651Z,44.32
2022-09-28T23:08:41.374Z,45.74
2022-09-28T23:11:07.866Z,45.11
2022-09-28T23:13:34.428Z,45.23
2022-09-28T23:16:01.211Z,45.21
2022-09-28T23:18:27.874Z,46.14
2022-09-28T23:20:54.654Z,46.46
2022-09-28T23:23:21.092Z,45.37
2022-09-28T23:25:47.518Z,45.42
2022-09-28T23:28:14.211Z,46.55
2022-09-28T23:30:40.619Z,47.28
2022-09-28T23:33:07.130Z,46.66
2022-09-28T23:35:33.902Z,46.85
2022-09-28T23:38:00.447Z,45.87
2022-09-28T23:40:27.037Z,46.40
2022-09-28T23:42:55.128Z,45.99
2022-09-28T23:45:21.609Z,46.11
2022-09-28T23:47:48.313Z,46.76
2022-09-28T23:50:15.405Z,45.94
2022-09-28T23:52:41.905Z,45.69
2022-09-28T23:55:08.315Z,44.95
2022-09-28T23:57:34.883Z,44.89
